Archer, Florida
Current Conditions -  °F | °C
As of 12:53 PM on Friday 21 Nov 2014 (Local Time) from KGNV Reporting Station
Clear Clear  
Wind Chill: 69°   Ceiling: Unl
Heat Index: 69°   Visibility: 10mi
Dew Point: 43°   Wind: 10mph
Humidity: 39%   Direction: 30°NNE
Pressure: 30.31"   Gusts: NA
Location:  29.53°N, 82.52°W
Report Text: KGNV 211753Z 03009KT 10SM CLR 21/06 A3031 RMK AO2 SLP265 T02060061 10206 20033 58014
Loading
Personal Weather Stations






























Interactive Weather Map New forecast layout! Learn more

10-Day Weather Forecast

Advertisements
Track Severe Weather on mobile